createdAt,value
2018-07-31T00:00:45.015Z,1009.02
2018-07-31T00:01:45.027Z,1009.05
2018-07-31T00:02:45.030Z,1009.05
2018-07-31T00:03:45.048Z,1009.03
2018-07-31T00:04:45.055Z,1009.00
2018-07-31T00:05:45.056Z,1008.99
2018-07-31T00:06:45.078Z,1008.96
2018-07-31T00:07:45.075Z,1009.01
2018-07-31T00:08:45.081Z,1008.99
2018-07-31T00:09:45.098Z,1009.00
2018-07-31T00:10:45.111Z,1009.03
2018-07-31T00:11:45.103Z,1009.00
2018-07-31T00:12:45.124Z,1009.00
2018-07-31T00:13:45.132Z,1008.99
2018-07-31T00:14:45.127Z,1008.99
2018-07-31T00:15:45.143Z,1009.00
2018-07-31T00:16:45.153Z,1008.98
2018-07-31T00:17:45.267Z,1009.02
2018-07-31T00:18:45.163Z,1008.99
2018-07-31T00:19:45.169Z,1009.00
2018-07-31T00:20:45.187Z,1008.99
2018-07-31T00:21:45.186Z,1009.00
2018-07-31T00:22:45.200Z,1009.04
2018-07-31T00:23:45.202Z,1009.03
2018-07-31T00:24:45.759Z,1009.00
2018-07-31T00:25:45.228Z,1009.03
2018-07-31T00:26:45.226Z,1009.00
2018-07-31T00:27:45.243Z,1009.02
2018-07-31T00:28:45.250Z,1009.02
2018-07-31T00:29:45.261Z,1009.03
2018-07-31T00:30:45.272Z,1009.06
2018-07-31T00:31:45.279Z,1009.08
2018-07-31T00:32:45.287Z,1009.06
2018-07-31T00:33:45.299Z,1009.04
2018-07-31T00:34:45.304Z,1009.02
2018-07-31T00:35:45.312Z,1009.01
2018-07-31T00:36:45.323Z,1009.03
2018-07-31T00:37:45.322Z,1009.01
2018-07-31T00:38:45.330Z,1008.99
2018-07-31T00:39:45.337Z,1009.01
2018-07-31T00:40:45.346Z,1008.96
2018-07-31T00:41:45.357Z,1008.96
2018-07-31T00:42:45.361Z,1008.96
2018-07-31T00:43:45.372Z,1008.98
2018-07-31T00:44:45.376Z,1008.96
2018-07-31T00:45:45.389Z,1008.95
2018-07-31T00:46:45.391Z,1008.93
2018-07-31T00:47:45.403Z,1008.97
2018-07-31T00:48:45.411Z,1008.95
2018-07-31T00:49:45.426Z,1008.97
2018-07-31T00:50:45.427Z,1008.98
2018-07-31T00:51:45.433Z,1008.98
2018-07-31T00:52:45.447Z,1008.95
2018-07-31T00:53:45.455Z,1008.98
2018-07-31T00:54:45.465Z,1008.95
2018-07-31T00:55:45.465Z,1008.96
2018-07-31T00:56:45.484Z,1008.95
2018-07-31T00:57:45.485Z,1008.91
2018-07-31T00:58:45.490Z,1008.95
2018-07-31T00:59:45.500Z,1008.97
2018-07-31T01:00:45.502Z,1008.93
2018-07-31T01:01:45.528Z,1008.93
2018-07-31T01:02:45.528Z,1008.95
2018-07-31T01:03:45.546Z,1008.89
2018-07-31T01:04:45.551Z,1008.90
2018-07-31T01:05:45.548Z,1008.91
2018-07-31T01:06:45.606Z,1008.91
2018-07-31T01:07:45.561Z,1008.88
2018-07-31T01:08:45.580Z,1008.90
2018-07-31T01:09:45.573Z,1008.88
2018-07-31T01:10:45.594Z,1008.90
2018-07-31T01:11:45.589Z,1008.90
2018-07-31T01:12:45.608Z,1008.91
2018-07-31T01:13:45.614Z,1008.90
2018-07-31T01:14:45.623Z,1008.91
2018-07-31T01:15:45.634Z,1008.92
2018-07-31T01:16:45.643Z,1008.91
2018-07-31T01:17:45.653Z,1008.89
2018-07-31T01:18:45.658Z,1008.89
2018-07-31T01:19:45.656Z,1008.92
2018-07-31T01:20:45.669Z,1008.91
2018-07-31T01:21:45.675Z,1008.88
2018-07-31T01:22:45.685Z,1008.90
2018-07-31T01:23:45.692Z,1008.88
2018-07-31T01:24:45.698Z,1008.86
2018-07-31T01:25:45.711Z,1008.89
2018-07-31T01:26:45.714Z,1008.91
2018-07-31T01:27:45.720Z,1008.89
2018-07-31T01:28:45.731Z,1008.89
2018-07-31T01:29:45.735Z,1008.91
2018-07-31T01:30:45.742Z,1008.89
2018-07-31T01:31:45.753Z,1008.89
2018-07-31T01:32:45.761Z,1008.91
2018-07-31T01:33:45.772Z,1008.93
2018-07-31T01:34:45.775Z,1008.93
2018-07-31T01:35:45.788Z,1008.98
2018-07-31T01:36:45.790Z,1008.94
2018-07-31T01:37:45.803Z,1008.98
2018-07-31T01:38:45.809Z,1008.96
2018-07-31T01:39:45.813Z,1008.94
2018-07-31T01:40:45.822Z,1008.93
2018-07-31T01:41:45.830Z,1008.92
2018-07-31T01:42:45.840Z,1008.95
2018-07-31T01:43:45.839Z,1008.94
2018-07-31T01:44:45.853Z,1008.92
2018-07-31T01:45:45.866Z,1008.93
2018-07-31T01:46:45.864Z,1008.91
2018-07-31T01:47:45.885Z,1008.96
2018-07-31T01:48:45.882Z,1008.93
2018-07-31T01:49:45.896Z,1008.95
2018-07-31T01:50:45.903Z,1008.88
2018-07-31T01:51:45.906Z,1008.91
2018-07-31T01:52:45.920Z,1008.96
2018-07-31T01:53:45.930Z,1008.91
2018-07-31T01:54:45.925Z,1008.89
2018-07-31T01:55:45.940Z,1008.88
2018-07-31T01:56:45.944Z,1008.86
2018-07-31T01:57:45.959Z,1008.86
2018-07-31T01:58:45.977Z,1008.86
2018-07-31T01:59:46.010Z,1008.88
2018-07-31T02:00:45.982Z,1008.85
2018-07-31T02:01:45.994Z,1008.83
2018-07-31T02:02:45.993Z,1008.82
2018-07-31T02:03:46.000Z,1008.82
2018-07-31T02:04:46.009Z,1008.80
2018-07-31T02:05:46.012Z,1008.78
2018-07-31T02:06:46.025Z,1008.79
2018-07-31T02:07:46.040Z,1008.82
2018-07-31T02:08:46.044Z,1008.84
2018-07-31T02:09:46.059Z,1008.85
2018-07-31T02:10:46.080Z,1008.82
2018-07-31T02:11:46.063Z,1008.82
2018-07-31T02:12:46.110Z,1008.84
2018-07-31T02:13:46.072Z,1008.82
2018-07-31T02:14:46.085Z,1008.79
2018-07-31T02:15:46.093Z,1008.82
2018-07-31T02:16:46.101Z,1008.80
2018-07-31T02:17:46.115Z,1008.79
2018-07-31T02:18:46.153Z,1008.79
2018-07-31T02:19:46.125Z,1008.78
2018-07-31T02:20:46.157Z,1008.77
2018-07-31T02:21:46.138Z,1008.74
2018-07-31T02:22:46.146Z,1008.74
2018-07-31T02:23:46.149Z,1008.74
2018-07-31T02:24:46.197Z,1008.74
2018-07-31T02:25:46.164Z,1008.71
2018-07-31T02:26:46.167Z,1008.74
2018-07-31T02:27:46.183Z,1008.74
2018-07-31T02:28:46.251Z,1008.75
2018-07-31T02:29:46.214Z,1008.77
2018-07-31T02:30:46.216Z,1008.72
2018-07-31T02:31:46.207Z,1008.74
2018-07-31T02:32:46.239Z,1008.74
2018-07-31T02:33:46.237Z,1008.72
2018-07-31T02:34:46.256Z,1008.74
2018-07-31T02:35:46.240Z,1008.70
2018-07-31T02:36:46.272Z,1008.74
2018-07-31T02:37:46.288Z,1008.73
2018-07-31T02:38:46.283Z,1008.74
2018-07-31T02:39:46.289Z,1008.75
2018-07-31T02:40:46.300Z,1008.76
2018-07-31T02:41:46.281Z,1008.74
2018-07-31T02:42:46.315Z,1008.76
2018-07-31T02:43:46.324Z,1008.75
2018-07-31T02:44:46.334Z,1008.76
2018-07-31T02:45:46.344Z,1008.73
2018-07-31T02:46:46.407Z,1008.73
2018-07-31T02:47:46.345Z,1008.75
2018-07-31T02:48:46.362Z,1008.76
2018-07-31T02:49:46.359Z,1008.78
2018-07-31T02:50:46.379Z,1008.78
2018-07-31T02:51:46.376Z,1008.77
2018-07-31T02:52:46.394Z,1008.74
2018-07-31T02:53:46.417Z,1008.82
2018-07-31T02:54:46.411Z,1008.76
2018-07-31T02:55:46.412Z,1008.74
2018-07-31T02:56:46.416Z,1008.78
2018-07-31T02:57:46.417Z,1008.77
2018-07-31T02:58:46.433Z,1008.75
2018-07-31T02:59:46.454Z,1008.77
2018-07-31T03:00:46.439Z,1008.74
2018-07-31T03:01:46.453Z,1008.80
2018-07-31T03:02:46.453Z,1008.78
2018-07-31T03:03:46.455Z,1008.78
2018-07-31T03:04:46.466Z,1008.74
2018-07-31T03:05:46.479Z,1008.75
2018-07-31T03:06:46.486Z,1008.77
2018-07-31T03:07:46.495Z,1008.77
2018-07-31T03:08:46.501Z,1008.80
2018-07-31T03:09:47.328Z,1008.77
2018-07-31T03:10:46.502Z,1008.81
2018-07-31T03:11:46.505Z,1008.81
2018-07-31T03:12:46.517Z,1008.82
2018-07-31T03:13:46.521Z,1008.80
2018-07-31T03:14:46.529Z,1008.82
2018-07-31T03:15:46.534Z,1008.79
2018-07-31T03:16:46.548Z,1008.82
2018-07-31T03:17:46.546Z,1008.83
2018-07-31T03:18:46.558Z,1008.80
2018-07-31T03:19:46.563Z,1008.84
2018-07-31T03:20:46.574Z,1008.79
2018-07-31T03:21:46.584Z,1008.81
2018-07-31T03:22:46.584Z,1008.85
2018-07-31T03:23:46.593Z,1008.88
2018-07-31T03:24:46.603Z,1008.86
2018-07-31T03:25:46.600Z,1008.88
2018-07-31T03:26:46.611Z,1008.88
2018-07-31T03:27:46.620Z,1008.92
2018-07-31T03:28:46.636Z,1008.93
2018-07-31T03:29:47.325Z,1008.94
2018-07-31T03:30:46.642Z,1009.00
2018-07-31T03:31:46.646Z,1009.02
2018-07-31T03:32:46.660Z,1009.02
2018-07-31T03:33:46.663Z,1009.04
2018-07-31T03:34:46.672Z,1009.06
2018-07-31T03:35:46.683Z,1009.01
2018-07-31T03:36:46.681Z,1009.02
2018-07-31T03:37:46.695Z,1009.03
2018-07-31T03:38:46.708Z,1009.06
2018-07-31T03:39:46.707Z,1009.02
2018-07-31T03:40:46.712Z,1009.09
2018-07-31T03:41:46.726Z,1009.08
2018-07-31T03:42:46.730Z,1009.11
2018-07-31T03:43:46.738Z,1009.09
2018-07-31T03:44:46.746Z,1009.09
2018-07-31T03:45:46.749Z,1009.12
2018-07-31T03:46:46.757Z,1009.09
2018-07-31T03:47:46.764Z,1009.09
2018-07-31T03:48:46.774Z,1009.06
2018-07-31T03:49:46.771Z,1009.07
2018-07-31T03:50:47.330Z,1009.07
2018-07-31T03:51:46.789Z,1009.05
2018-07-31T03:52:46.809Z,1009.09
2018-07-31T03:53:46.812Z,1009.06
2018-07-31T03:54:46.818Z,1009.07
2018-07-31T03:55:46.815Z,1009.07
2018-07-31T03:56:46.831Z,1009.10
2018-07-31T03:57:46.829Z,1009.12
2018-07-31T03:58:46.851Z,1009.12
2018-07-31T03:59:46.849Z,1009.10
2018-07-31T04:00:46.866Z,1009.15
2018-07-31T04:01:47.836Z,1009.18
2018-07-31T04:02:46.866Z,1009.20
2018-07-31T04:03:46.880Z,1009.24
2018-07-31T04:04:46.932Z,1009.22
2018-07-31T04:05:46.889Z,1009.23
2018-07-31T04:06:46.896Z,1009.26
2018-07-31T04:07:46.900Z,1009.27
2018-07-31T04:08:46.906Z,1009.26
2018-07-31T04:09:46.918Z,1009.29
2018-07-31T04:10:46.926Z,1009.27
2018-07-31T04:11:46.933Z,1009.31
2018-07-31T04:12:47.856Z,1009.30
2018-07-31T04:13:46.950Z,1009.30
2018-07-31T04:14:46.951Z,1009.30
2018-07-31T04:15:46.958Z,1009.24
2018-07-31T04:16:47.007Z,1009.26
2018-07-31T04:17:46.972Z,1009.27
2018-07-31T04:18:46.995Z,1009.20
2018-07-31T04:19:46.983Z,1009.24
2018-07-31T04:20:46.992Z,1009.31
2018-07-31T04:21:46.990Z,1009.28
2018-07-31T04:22:47.006Z,1009.31
2018-07-31T04:23:47.015Z,1009.29
2018-07-31T04:24:47.018Z,1009.29
2018-07-31T04:25:47.031Z,1009.26
2018-07-31T04:26:47.030Z,1009.26
2018-07-31T04:27:47.041Z,1009.26
2018-07-31T04:28:47.051Z,1009.32
2018-07-31T04:29:47.051Z,1009.27
2018-07-31T04:30:47.060Z,1009.28
2018-07-31T04:31:47.071Z,1009.29
2018-07-31T04:32:47.073Z,1009.32
2018-07-31T04:33:47.079Z,1009.34
2018-07-31T04:34:47.088Z,1009.33
2018-07-31T04:35:47.110Z,1009.33
2018-07-31T04:36:47.105Z,1009.34
2018-07-31T04:37:47.111Z,1009.31
2018-07-31T04:38:47.124Z,1009.32
2018-07-31T04:39:47.130Z,1009.31
2018-07-31T04:40:47.130Z,1009.33
2018-07-31T04:41:47.143Z,1009.34
2018-07-31T04:42:47.156Z,1009.35
2018-07-31T04:43:47.152Z,1009.33
2018-07-31T04:44:47.169Z,1009.40
2018-07-31T04:45:47.176Z,1009.40
2018-07-31T04:46:47.172Z,1009.40
2018-07-31T04:47:47.192Z,1009.38
2018-07-31T04:48:47.192Z,1009.39
2018-07-31T04:49:47.196Z,1009.45
2018-07-31T04:50:47.211Z,1009.45
2018-07-31T04:51:47.212Z,1009.48
2018-07-31T04:52:47.228Z,1009.47
2018-07-31T04:53:47.225Z,1009.43
2018-07-31T04:54:47.236Z,1009.47
2018-07-31T04:55:47.247Z,1009.45
2018-07-31T04:56:47.262Z,1009.44
2018-07-31T04:57:47.264Z,1009.44
2018-07-31T04:58:47.268Z,1009.40
2018-07-31T04:59:47.272Z,1009.38
2018-07-31T05:00:47.289Z,1009.37
2018-07-31T05:01:47.294Z,1009.35
2018-07-31T05:02:47.294Z,1009.34
2018-07-31T05:03:47.309Z,1009.33
2018-07-31T05:04:47.308Z,1009.37
2018-07-31T05:05:47.323Z,1009.36
2018-07-31T05:06:47.329Z,1009.38
2018-07-31T05:07:47.337Z,1009.41
2018-07-31T05:08:47.349Z,1009.43
2018-07-31T05:09:47.358Z,1009.49
2018-07-31T05:10:47.363Z,1009.50
2018-07-31T05:11:47.366Z,1009.45
2018-07-31T05:12:47.374Z,1009.51
2018-07-31T05:13:47.382Z,1009.50
2018-07-31T05:14:47.385Z,1009.56
2018-07-31T05:15:47.397Z,1009.55
2018-07-31T05:16:47.405Z,1009.56
2018-07-31T05:17:47.420Z,1009.59
2018-07-31T05:18:47.424Z,1009.55
2018-07-31T05:19:47.425Z,1009.56
2018-07-31T05:20:47.433Z,1009.56
2018-07-31T05:21:47.451Z,1009.60
2018-07-31T05:22:47.457Z,1009.60
2018-07-31T05:23:47.453Z,1009.59
2018-07-31T05:24:47.475Z,1009.58
2018-07-31T05:25:47.473Z,1009.63
2018-07-31T05:26:47.490Z,1009.62
2018-07-31T05:27:47.488Z,1009.61
2018-07-31T05:28:47.506Z,1009.64
2018-07-31T05:29:47.515Z,1009.64
2018-07-31T05:30:47.514Z,1009.59
2018-07-31T05:31:47.532Z,1009.60
2018-07-31T05:32:47.600Z,1009.58
2018-07-31T05:33:47.538Z,1009.60
2018-07-31T05:34:47.550Z,1009.60
2018-07-31T05:35:47.559Z,1009.62
2018-07-31T05:36:47.561Z,1009.69
2018-07-31T05:37:47.588Z,1009.84
2018-07-31T05:38:47.579Z,1009.96
2018-07-31T05:39:47.596Z,1009.99
2018-07-31T05:40:47.604Z,1010.02
2018-07-31T05:41:47.606Z,1010.04
2018-07-31T05:42:47.622Z,1010.04
2018-07-31T05:43:47.631Z,1010.06
2018-07-31T05:44:47.640Z,1010.09
2018-07-31T05:45:47.645Z,1010.14
2018-07-31T05:46:47.661Z,1010.20
2018-07-31T05:47:47.669Z,1010.21
2018-07-31T05:48:47.681Z,1010.16
2018-07-31T05:49:47.782Z,1010.14
2018-07-31T05:50:47.716Z,1010.08
2018-07-31T05:51:47.761Z,1010.14
2018-07-31T05:52:47.748Z,1010.10
2018-07-31T05:53:48.416Z,1010.07
2018-07-31T05:54:47.754Z,1010.04
2018-07-31T05:55:47.758Z,1010.08
2018-07-31T05:56:47.775Z,1010.10
2018-07-31T05:57:47.780Z,1010.11
2018-07-31T05:58:47.795Z,1010.14
2018-07-31T05:59:47.808Z,1010.09
2018-07-31T06:00:47.818Z,1010.22
2018-07-31T06:01:47.832Z,1010.11
2018-07-31T06:02:47.845Z,1010.30
2018-07-31T06:03:47.864Z,1010.32
2018-07-31T06:04:47.875Z,1010.30
2018-07-31T06:05:47.886Z,1010.30
2018-07-31T06:06:47.898Z,1010.41
2018-07-31T06:07:47.917Z,1010.42
2018-07-31T06:08:47.922Z,1010.36
2018-07-31T06:09:47.944Z,1010.41
2018-07-31T06:10:47.977Z,1010.48
2018-07-31T06:11:47.975Z,1010.53
2018-07-31T06:12:47.980Z,1010.55
2018-07-31T06:13:48.890Z,1010.51
2018-07-31T06:14:48.014Z,1010.54
2018-07-31T06:15:48.023Z,1010.58
2018-07-31T06:16:48.048Z,1010.64
2018-07-31T06:17:48.054Z,1010.63
2018-07-31T06:18:48.068Z,1010.59
2018-07-31T06:19:48.089Z,1010.58
2018-07-31T06:20:48.103Z,1010.57
2018-07-31T06:21:48.125Z,1010.63
2018-07-31T06:22:48.135Z,1010.64
2018-07-31T06:23:48.150Z,1010.65
2018-07-31T06:24:48.166Z,1010.69
2018-07-31T06:25:48.182Z,1010.68
2018-07-31T06:26:48.192Z,1010.68
2018-07-31T06:27:48.205Z,1010.69
2018-07-31T06:28:48.229Z,1010.76
2018-07-31T06:29:48.266Z,1010.72
2018-07-31T06:30:48.259Z,1010.73
2018-07-31T06:31:48.281Z,1010.72
2018-07-31T06:32:48.334Z,1010.81
2018-07-31T06:33:48.311Z,1010.77
2018-07-31T06:34:48.336Z,1010.84
2018-07-31T06:35:48.354Z,1010.88
2018-07-31T06:36:48.365Z,1010.86
2018-07-31T06:37:48.374Z,1010.86
2018-07-31T06:38:48.393Z,1010.87
2018-07-31T06:39:48.413Z,1010.88
2018-07-31T06:40:48.430Z,1010.89
2018-07-31T06:41:48.447Z,1010.86
2018-07-31T06:42:48.468Z,1010.83
2018-07-31T06:43:48.482Z,1010.91
2018-07-31T06:44:48.516Z,1010.84
2018-07-31T06:45:48.522Z,1010.68
2018-07-31T06:46:48.549Z,1010.50
2018-07-31T06:47:48.580Z,1010.70
2018-07-31T06:48:48.584Z,1010.89
2018-07-31T06:49:48.589Z,1011.01
2018-07-31T06:50:48.619Z,1011.01
2018-07-31T06:51:48.644Z,1011.04
2018-07-31T06:52:48.648Z,1011.07
2018-07-31T06:53:48.695Z,1011.05
2018-07-31T06:54:48.687Z,1011.10
2018-07-31T06:55:48.709Z,1010.96
2018-07-31T06:56:48.738Z,1011.01
2018-07-31T06:57:48.743Z,1011.09
2018-07-31T06:58:48.758Z,1011.08
2018-07-31T06:59:48.777Z,1011.01
2018-07-31T07:00:48.797Z,1011.02
2018-07-31T07:01:48.819Z,1011.03
2018-07-31T07:02:48.849Z,1011.08
2018-07-31T07:03:48.858Z,1011.13
2018-07-31T07:04:48.872Z,1011.14
2018-07-31T07:05:48.905Z,1011.08
2018-07-31T07:06:48.919Z,1011.07
2018-07-31T07:07:48.936Z,1010.81
2018-07-31T07:08:48.964Z,1011.02
2018-07-31T07:09:48.971Z,1010.90
2018-07-31T07:10:49.011Z,1010.81
2018-07-31T07:11:49.016Z,1010.77
2018-07-31T07:12:49.030Z,1010.70
2018-07-31T07:13:49.061Z,1010.59
2018-07-31T07:14:49.075Z,1010.72
2018-07-31T07:15:49.097Z,1010.78
2018-07-31T07:16:49.123Z,1010.82
2018-07-31T07:17:49.131Z,1010.90
2018-07-31T07:18:49.163Z,1010.88
2018-07-31T07:19:49.175Z,1010.85
2018-07-31T07:20:49.190Z,1011.03
2018-07-31T07:21:49.220Z,1010.97
2018-07-31T07:22:49.234Z,1011.07
2018-07-31T07:23:49.249Z,1011.06
2018-07-31T07:24:49.268Z,1011.20
2018-07-31T07:25:49.292Z,1011.29
2018-07-31T07:26:49.313Z,1010.77
2018-07-31T07:27:49.350Z,1010.96
2018-07-31T07:28:49.354Z,1010.67
2018-07-31T07:29:49.363Z,1010.51
2018-07-31T07:30:49.390Z,1010.61
2018-07-31T07:31:49.406Z,1010.66
2018-07-31T07:32:49.433Z,1010.54
2018-07-31T07:33:49.511Z,1010.75
2018-07-31T07:34:49.478Z,1010.93
2018-07-31T07:35:49.491Z,1010.78
2018-07-31T07:36:49.508Z,1010.70
2018-07-31T07:37:49.536Z,1010.68
2018-07-31T07:38:49.548Z,1010.48
2018-07-31T07:39:49.596Z,1010.66
2018-07-31T07:40:49.588Z,1010.69
2018-07-31T07:41:49.600Z,1010.68
2018-07-31T07:42:49.631Z,1010.68
2018-07-31T07:43:49.644Z,1010.63
2018-07-31T07:44:49.658Z,1010.95
2018-07-31T07:45:49.678Z,1011.00
2018-07-31T07:46:49.696Z,1011.04
2018-07-31T07:47:49.715Z,1010.95
2018-07-31T07:48:49.726Z,1011.10
2018-07-31T07:49:49.754Z,1011.25
2018-07-31T07:50:49.763Z,1011.22
2018-07-31T07:51:49.798Z,1010.68
2018-07-31T07:52:49.807Z,1010.90
2018-07-31T07:53:49.861Z,1011.00
2018-07-31T07:54:49.840Z,1010.91
2018-07-31T07:55:49.876Z,1010.57
2018-07-31T07:56:49.878Z,1010.93
2018-07-31T07:57:49.894Z,1010.73
2018-07-31T07:58:49.910Z,1010.63
2018-07-31T07:59:49.937Z,1010.70
2018-07-31T08:00:49.964Z,1010.74
2018-07-31T08:01:49.974Z,1010.60
2018-07-31T08:02:49.995Z,1010.65
2018-07-31T08:03:50.044Z,1010.94
2018-07-31T08:04:50.052Z,1010.71
2018-07-31T08:05:50.051Z,1010.71
2018-07-31T08:06:50.070Z,1010.78
2018-07-31T08:07:50.091Z,1010.55
2018-07-31T08:08:50.105Z,1010.49
2018-07-31T08:09:50.177Z,1010.71
2018-07-31T08:10:50.147Z,1010.54
2018-07-31T08:11:50.159Z,1010.56
2018-07-31T08:12:50.191Z,1010.50
2018-07-31T08:13:50.200Z,1010.64
2018-07-31T08:14:50.220Z,1010.81
2018-07-31T08:15:50.239Z,1011.24
2018-07-31T08:16:50.254Z,1011.22
2018-07-31T08:17:50.294Z,1011.06
2018-07-31T08:18:50.299Z,1010.96
2018-07-31T08:19:50.311Z,1010.74
2018-07-31T08:20:50.341Z,1010.68
2018-07-31T08:21:50.349Z,1010.63
2018-07-31T08:22:50.365Z,1010.50
2018-07-31T08:23:50.394Z,1010.65
2018-07-31T08:24:50.405Z,1010.67
2018-07-31T08:25:50.431Z,1010.93
2018-07-31T08:26:50.459Z,1011.24
2018-07-31T08:27:50.506Z,1011.09
2018-07-31T08:28:50.480Z,1011.00
2018-07-31T08:29:50.508Z,1010.58
2018-07-31T08:30:50.521Z,1011.16
2018-07-31T08:31:50.567Z,1011.38
2018-07-31T08:32:50.562Z,1011.00
2018-07-31T08:33:50.578Z,1011.01
2018-07-31T08:34:50.619Z,1010.63
2018-07-31T08:35:50.623Z,1011.10
2018-07-31T08:36:50.636Z,1011.62
2018-07-31T08:37:50.657Z,1011.66
2018-07-31T08:38:50.676Z,1011.53
2018-07-31T08:39:50.692Z,1011.58
2018-07-31T08:40:50.715Z,1011.54
2018-07-31T08:41:50.749Z,1011.39
2018-07-31T08:42:50.758Z,1011.39
2018-07-31T08:43:50.817Z,1011.31
2018-07-31T08:44:50.800Z,1010.99
2018-07-31T08:45:50.813Z,1010.98
2018-07-31T08:46:50.839Z,1011.11
2018-07-31T08:47:50.858Z,1011.54
2018-07-31T08:48:50.880Z,1010.53
2018-07-31T08:49:50.946Z,1011.17
2018-07-31T08:50:50.930Z,1011.00
2018-07-31T08:51:50.956Z,1011.16
2018-07-31T08:52:50.966Z,1011.16
2018-07-31T08:53:50.991Z,1011.54
2018-07-31T08:54:51.004Z,1011.55
2018-07-31T08:55:51.077Z,1011.54
2018-07-31T08:56:51.109Z,1011.55
2018-07-31T08:57:51.078Z,1011.49
2018-07-31T08:58:51.093Z,1011.50
2018-07-31T08:59:51.124Z,1011.46
2018-07-31T09:00:51.142Z,1011.52
2018-07-31T09:01:51.160Z,1011.12
2018-07-31T09:02:51.216Z,1011.42
2018-07-31T09:03:51.209Z,1011.25
2018-07-31T09:04:51.236Z,1011.33
2018-07-31T09:05:51.252Z,1011.37
2018-07-31T09:06:51.953Z,1011.38
2018-07-31T09:07:51.296Z,1011.40
2018-07-31T09:08:51.389Z,1011.40
2018-07-31T09:09:51.338Z,1010.76
2018-07-31T09:10:51.385Z,1011.30
2018-07-31T09:11:51.388Z,1011.48
2018-07-31T09:12:51.412Z,1011.09
2018-07-31T09:13:51.432Z,1011.09
2018-07-31T09:14:51.458Z,1011.35
2018-07-31T09:15:51.486Z,1010.96
2018-07-31T09:16:51.501Z,1010.79
2018-07-31T09:17:51.531Z,1010.78
2018-07-31T09:18:51.548Z,1010.67
2018-07-31T09:19:51.581Z,1010.68
2018-07-31T09:20:51.633Z,1010.48
2018-07-31T09:21:51.624Z,1010.61
2018-07-31T09:22:51.643Z,1010.80
2018-07-31T09:23:51.668Z,1010.64
2018-07-31T09:24:51.774Z,1010.65
2018-07-31T09:25:51.714Z,1010.71
2018-07-31T09:26:52.455Z,1010.74
2018-07-31T09:27:51.756Z,1010.57
2018-07-31T09:28:51.788Z,1010.62
2018-07-31T09:29:51.799Z,1010.75
2018-07-31T09:30:51.953Z,1010.87
2018-07-31T09:31:51.843Z,1011.04
2018-07-31T09:32:51.866Z,1010.91
2018-07-31T09:33:51.890Z,1011.21
2018-07-31T09:34:51.905Z,1010.97
2018-07-31T09:35:51.930Z,1010.98
2018-07-31T09:36:51.949Z,1011.29
2018-07-31T09:37:51.995Z,1011.27
2018-07-31T09:38:51.989Z,1010.63
2018-07-31T09:39:52.010Z,1010.59
2018-07-31T09:40:52.033Z,1010.52
2018-07-31T09:41:52.058Z,1010.50
2018-07-31T09:42:52.074Z,1010.63
2018-07-31T09:43:52.093Z,1010.65
2018-07-31T09:44:52.124Z,1010.69
2018-07-31T09:45:52.152Z,1010.65
2018-07-31T09:46:52.164Z,1011.01
2018-07-31T09:47:52.173Z,1011.30
2018-07-31T09:48:52.190Z,1010.73
2018-07-31T09:49:52.221Z,1011.06
2018-07-31T09:50:52.234Z,1010.73
2018-07-31T09:51:52.261Z,1010.54
2018-07-31T09:52:52.282Z,1010.50
2018-07-31T09:53:52.294Z,1010.51
2018-07-31T09:54:52.321Z,1010.62
2018-07-31T09:55:52.340Z,1010.63
2018-07-31T09:56:52.354Z,1010.51
2018-07-31T09:57:52.378Z,1010.50
2018-07-31T09:58:52.399Z,1010.48
2018-07-31T09:59:52.410Z,1010.71
2018-07-31T10:00:52.436Z,1010.52
2018-07-31T10:01:52.450Z,1011.12
2018-07-31T10:02:52.493Z,1010.82
2018-07-31T10:03:52.494Z,1010.62
2018-07-31T10:04:52.516Z,1011.04
2018-07-31T10:05:52.533Z,1010.72
2018-07-31T10:06:52.553Z,1010.96
2018-07-31T10:07:52.566Z,1010.98
2018-07-31T10:08:52.585Z,1010.81
2018-07-31T10:09:52.611Z,1010.74
2018-07-31T10:10:52.625Z,1010.78
2018-07-31T10:11:52.713Z,1010.69
2018-07-31T10:12:52.666Z,1010.52
2018-07-31T10:13:52.697Z,1010.60
2018-07-31T10:14:52.705Z,1010.62
2018-07-31T10:15:52.736Z,1010.41
2018-07-31T10:16:52.761Z,1010.54
2018-07-31T10:17:52.788Z,1010.52
2018-07-31T10:18:52.797Z,1010.52
2018-07-31T10:19:52.829Z,1010.37
2018-07-31T10:20:52.835Z,1010.46
2018-07-31T10:21:52.860Z,1010.35
2018-07-31T10:22:52.881Z,1010.42
2018-07-31T10:23:52.940Z,1010.45
2018-07-31T10:24:52.925Z,1010.46
2018-07-31T10:25:52.944Z,1010.46
2018-07-31T10:26:52.962Z,1010.46
2018-07-31T10:27:52.985Z,1010.55
2018-07-31T10:28:53.006Z,1010.56
2018-07-31T10:29:53.025Z,1010.62
2018-07-31T10:30:53.117Z,1010.62
2018-07-31T10:31:53.074Z,1010.54
2018-07-31T10:32:53.084Z,1010.50
2018-07-31T10:33:53.099Z,1010.63
2018-07-31T10:34:53.123Z,1010.70
2018-07-31T10:35:53.138Z,1010.71
2018-07-31T10:36:53.161Z,1010.70
2018-07-31T10:37:53.233Z,1010.55
2018-07-31T10:38:53.198Z,1010.55
2018-07-31T10:39:53.230Z,1010.54
2018-07-31T10:40:53.240Z,1010.55
2018-07-31T10:41:53.257Z,1010.51
2018-07-31T10:42:53.271Z,1010.55
2018-07-31T10:43:53.337Z,1010.51
2018-07-31T10:44:53.316Z,1010.48
2018-07-31T10:45:53.334Z,1010.55
2018-07-31T10:46:53.352Z,1010.49
2018-07-31T10:47:53.386Z,1010.57
2018-07-31T10:48:53.450Z,1010.57
2018-07-31T10:49:53.409Z,1010.48
2018-07-31T10:50:53.433Z,1010.49
2018-07-31T10:51:53.453Z,1010.54
2018-07-31T10:52:53.474Z,1010.54
2018-07-31T10:53:53.494Z,1010.51
2018-07-31T10:54:53.541Z,1010.53
2018-07-31T10:55:53.535Z,1010.49
2018-07-31T10:56:53.552Z,1010.57
2018-07-31T10:57:53.571Z,1010.54
2018-07-31T10:58:53.590Z,1010.66
2018-07-31T10:59:53.619Z,1010.73
2018-07-31T11:00:53.627Z,1010.68
2018-07-31T11:01:53.641Z,1010.64
2018-07-31T11:02:53.764Z,1010.70
2018-07-31T11:03:53.711Z,1010.67
2018-07-31T11:04:53.686Z,1010.67
2018-07-31T11:05:53.721Z,1010.68
2018-07-31T11:06:53.731Z,1010.65
2018-07-31T11:07:53.753Z,1010.72
2018-07-31T11:08:53.773Z,1010.75
2018-07-31T11:09:53.796Z,1010.69
2018-07-31T11:10:53.804Z,1010.70
2018-07-31T11:11:53.811Z,1010.71
2018-07-31T11:12:53.838Z,1010.66
2018-07-31T11:13:53.855Z,1010.65
2018-07-31T11:14:53.868Z,1010.72
2018-07-31T11:15:53.892Z,1010.74
2018-07-31T11:16:53.907Z,1010.74
2018-07-31T11:17:53.921Z,1010.76
2018-07-31T11:18:53.941Z,1010.73
2018-07-31T11:19:53.960Z,1010.77
2018-07-31T11:20:53.981Z,1010.82
2018-07-31T11:21:53.998Z,1010.64
2018-07-31T11:22:54.007Z,1010.76
2018-07-31T11:23:54.029Z,1010.71
2018-07-31T11:24:54.046Z,1010.66
2018-07-31T11:25:54.068Z,1010.59
2018-07-31T11:26:54.089Z,1010.61
2018-07-31T11:27:54.102Z,1010.62
2018-07-31T11:28:54.117Z,1010.66
2018-07-31T11:29:54.136Z,1010.76
2018-07-31T11:30:54.156Z,1010.73
2018-07-31T11:31:54.171Z,1010.70
2018-07-31T11:32:54.235Z,1010.68
2018-07-31T11:33:54.206Z,1010.59
2018-07-31T11:34:54.226Z,1010.67
2018-07-31T11:35:54.244Z,1010.59
2018-07-31T11:36:54.268Z,1010.59
2018-07-31T11:37:54.274Z,1010.60
2018-07-31T11:38:54.299Z,1010.57
2018-07-31T11:39:54.315Z,1010.60
2018-07-31T11:40:54.382Z,1010.56
2018-07-31T11:41:54.354Z,1010.65
2018-07-31T11:42:54.364Z,1010.56
2018-07-31T11:43:54.439Z,1010.58
2018-07-31T11:44:54.401Z,1010.62
2018-07-31T11:45:54.423Z,1010.57
2018-07-31T11:46:54.444Z,1010.54
2018-07-31T11:47:54.464Z,1010.45
2018-07-31T11:48:54.480Z,1010.53
2018-07-31T11:49:54.569Z,1010.49
2018-07-31T11:50:54.634Z,1010.41
2018-07-31T11:51:54.529Z,1010.43
2018-07-31T11:52:54.581Z,1010.45
2018-07-31T11:53:54.567Z,1010.44
2018-07-31T11:54:54.579Z,1010.46
2018-07-31T11:55:54.638Z,1010.36
2018-07-31T11:56:54.617Z,1010.43
2018-07-31T11:57:54.632Z,1010.40
2018-07-31T11:58:54.653Z,1010.37
2018-07-31T11:59:54.676Z,1010.37
2018-07-31T12:00:54.690Z,1010.33
2018-07-31T12:01:54.706Z,1010.33
2018-07-31T12:02:54.735Z,1010.31
2018-07-31T12:03:54.750Z,1010.32
2018-07-31T12:04:55.513Z,1010.28
2018-07-31T12:05:54.776Z,1010.33